sensor_id;sensor_type;location;lat;lon;timestamp;P1;durP1;ratioP1;P2;durP2;ratioP2
31002;SDS011;23051;-6.372;106.786;2022-08-11T00:00:10;12.82;;;4.00;;
31002;SDS011;23051;-6.372;106.786;2022-08-11T00:02:12;5.22;;;4.22;;
31002;SDS011;23051;-6.372;106.786;2022-08-11T00:04:19;11.00;;;5.93;;
31002;SDS011;23051;-6.372;106.786;2022-08-11T00:06:28;4.28;;;3.97;;
31002;SDS011;23051;-6.372;106.786;2022-08-11T00:08:32;4.15;;;3.72;;
31002;SDS011;23051;-6.372;106.786;2022-08-11T00:10:34;10.10;;;5.40;;
31002;SDS011;23051;-6.372;106.786;2022-08-11T00:14:38;6.88;;;4.57;;
31002;SDS011;23051;-6.372;106.786;2022-08-11T00:16:43;5.95;;;5.22;;
31002;SDS011;23051;-6.372;106.786;2022-08-11T00:18:53;4.82;;;4.35;;
31002;SDS011;23051;-6.372;106.786;2022-08-11T00:20:57;3.10;;;2.90;;
31002;SDS011;23051;-6.372;106.786;2022-08-11T00:27:10;10.40;;;3.75;;
31002;SDS011;23051;-6.372;106.786;2022-08-11T00:29:11;10.13;;;3.55;;
31002;SDS011;23051;-6.372;106.786;2022-08-11T00:33:19;12.02;;;5.32;;
31002;SDS011;23051;-6.372;106.786;2022-08-11T00:35:26;16.45;;;6.53;;
31002;SDS011;23051;-6.372;106.786;2022-08-11T00:39:30;8.90;;;5.20;;
31002;SDS011;23051;-6.372;106.786;2022-08-11T00:41:36;6.77;;;5.50;;
31002;SDS011;23051;-6.372;106.786;2022-08-11T00:43:46;11.02;;;7.40;;
31002;SDS011;23051;-6.372;106.786;2022-08-11T00:48:02;6.70;;;5.10;;
31002;SDS011;23051;-6.372;106.786;2022-08-11T00:50:12;8.75;;;6.95;;
31002;SDS011;23051;-6.372;106.786;2022-08-11T00:54:30;6.75;;;6.03;;
31002;SDS011;23051;-6.372;106.786;2022-08-11T01:00:52;7.85;;;5.32;;
31002;SDS011;23051;-6.372;106.786;2022-08-11T01:17:40;31.77;;;5.93;;
31002;SDS011;23051;-6.372;106.786;2022-08-11T01:28:15;13.18;;;5.78;;
31002;SDS011;23051;-6.372;106.786;2022-08-11T01:45:04;8.50;;;5.75;;
31002;SDS011;23051;-6.372;106.786;2022-08-11T01:49:34;8.90;;;6.15;;
31002;SDS011;23051;-6.372;106.786;2022-08-11T01:53:50;6.38;;;5.13;;
31002;SDS011;23051;-6.372;106.786;2022-08-11T02:00:11;6.88;;;5.57;;
31002;SDS011;23051;-6.372;106.786;2022-08-11T02:08:49;9.18;;;4.53;;
31002;SDS011;23051;-6.372;106.786;2022-08-11T02:11:28;11.35;;;4.22;;
31002;SDS011;23051;-6.372;106.786;2022-08-11T02:21:41;9.35;;;5.65;;
31002;SDS011;23051;-6.372;106.786;2022-08-11T02:23:47;5.38;;;4.88;;
31002;SDS011;23051;-6.372;106.786;2022-08-11T02:28:05;8.38;;;5.50;;
31002;SDS011;23051;-6.372;106.786;2022-08-11T02:30:13;8.93;;;5.72;;
31002;SDS011;23051;-6.372;106.786;2022-08-11T02:36:35;8.90;;;5.55;;
31002;SDS011;23051;-6.372;106.786;2022-08-11T02:38:43;5.32;;;4.55;;
31002;SDS011;23051;-6.372;106.786;2022-08-11T02:47:07;9.45;;;5.32;;
31002;SDS011;23051;-6.372;106.786;2022-08-11T02:57:33;5.07;;;4.57;;
31002;SDS011;23051;-6.372;106.786;2022-08-11T02:59:44;6.43;;;5.32;;
31002;SDS011;23051;-6.372;106.786;2022-08-11T03:04:00;10.68;;;4.47;;
31002;SDS011;23051;-6.372;106.786;2022-08-11T03:10:17;13.60;;;5.13;;
31002;SDS011;23051;-6.372;106.786;2022-08-11T03:12:28;13.05;;;7.15;;
31002;SDS011;23051;-6.372;106.786;2022-08-11T03:14:36;6.65;;;4.53;;
31002;SDS011;23051;-6.372;106.786;2022-08-11T03:16:50;8.23;;;5.40;;
31002;SDS011;23051;-6.372;106.786;2022-08-11T03:18:55;5.30;;;3.75;;
31002;SDS011;23051;-6.372;106.786;2022-08-11T03:25:31;2.72;;;2.35;;
31002;SDS011;23051;-6.372;106.786;2022-08-11T03:29:39;9.25;;;4.22;;
31002;SDS011;23051;-6.372;106.786;2022-08-11T03:36:02;11.20;;;5.38;;
31002;SDS011;23051;-6.372;106.786;2022-08-11T03:38:10;8.95;;;4.68;;
31002;SDS011;23051;-6.372;106.786;2022-08-11T03:46:52;9.15;;;4.93;;
31002;SDS011;23051;-6.372;106.786;2022-08-11T03:49:00;7.03;;;3.40;;
31002;SDS011;23051;-6.372;106.786;2022-08-11T04:09:55;4.55;;;3.60;;
31002;SDS011;23051;-6.372;106.786;2022-08-11T04:18:19;7.03;;;4.82;;
31002;SDS011;23051;-6.372;106.786;2022-08-11T04:28:46;6.15;;;3.38;;
31002;SDS011;23051;-6.372;106.786;2022-08-11T04:32:56;7.57;;;3.85;;
31002;SDS011;23051;-6.372;106.786;2022-08-11T04:41:50;6.80;;;3.03;;
31002;SDS011;23051;-6.372;106.786;2022-08-11T04:56:50;5.93;;;4.28;;
31002;SDS011;23051;-6.372;106.786;2022-08-11T04:59:14;8.73;;;5.60;;
31002;SDS011;23051;-6.372;106.786;2022-08-11T05:13:45;9.80;;;3.95;;
31002;SDS011;23051;-6.372;106.786;2022-08-11T05:18:02;4.75;;;4.35;;
31002;SDS011;23051;-6.372;106.786;2022-08-11T05:20:09;2.53;;;2.38;;
31002;SDS011;23051;-6.372;106.786;2022-08-11T05:22:16;11.43;;;4.82;;
31002;SDS011;23051;-6.372;106.786;2022-08-11T05:24:22;6.88;;;4.78;;
31002;SDS011;23051;-6.372;106.786;2022-08-11T05:26:28;7.85;;;3.50;;
31002;SDS011;23051;-6.372;106.786;2022-08-11T05:28:35;5.30;;;4.35;;
31002;SDS011;23051;-6.372;106.786;2022-08-11T05:30:41;14.45;;;4.07;;
31002;SDS011;23051;-6.372;106.786;2022-08-11T05:32:53;9.68;;;4.85;;
31002;SDS011;23051;-6.372;106.786;2022-08-11T05:34:59;5.35;;;4.07;;
31002;SDS011;23051;-6.372;106.786;2022-08-11T05:37:11;7.78;;;4.65;;
31002;SDS011;23051;-6.372;106.786;2022-08-11T05:39:16;25.05;;;7.00;;
31002;SDS011;23051;-6.372;106.786;2022-08-11T05:41:23;9.23;;;5.45;;
31002;SDS011;23051;-6.372;106.786;2022-08-11T05:43:30;17.65;;;5.80;;
31002;SDS011;23051;-6.372;106.786;2022-08-11T05:45:36;10.00;;;5.15;;
31002;SDS011;23051;-6.372;106.786;2022-08-11T05:47:44;8.82;;;4.63;;
31002;SDS011;23051;-6.372;106.786;2022-08-11T05:49:51;9.48;;;4.30;;
31002;SDS011;23051;-6.372;106.786;2022-08-11T05:51:55;11.77;;;3.95;;
31002;SDS011;23051;-6.372;106.786;2022-08-11T05:54:03;8.32;;;5.15;;
31002;SDS011;23051;-6.372;106.786;2022-08-11T05:56:10;5.18;;;4.38;;
31002;SDS011;23051;-6.372;106.786;2022-08-11T05:58:14;3.10;;;2.85;;
31002;SDS011;23051;-6.372;106.786;2022-08-11T06:00:19;7.07;;;3.65;;
31002;SDS011;23051;-6.372;106.786;2022-08-11T06:02:23;4.32;;;4.00;;
31002;SDS011;23051;-6.372;106.786;2022-08-11T06:04:30;9.15;;;6.20;;
31002;SDS011;23051;-6.372;106.786;2022-08-11T06:06:36;15.30;;;4.72;;
31002;SDS011;23051;-6.372;106.786;2022-08-11T06:08:40;4.88;;;4.00;;
31002;SDS011;23051;-6.372;106.786;2022-08-11T06:10:48;10.43;;;5.03;;
31002;SDS011;23051;-6.372;106.786;2022-08-11T06:12:52;6.53;;;4.32;;
31002;SDS011;23051;-6.372;106.786;2022-08-11T06:16:58;8.35;;;4.57;;
31002;SDS011;23051;-6.372;106.786;2022-08-11T06:19:00;8.85;;;4.88;;
31002;SDS011;23051;-6.372;106.786;2022-08-11T06:21:07;7.78;;;5.10;;
31002;SDS011;23051;-6.372;106.786;2022-08-11T06:23:11;9.77;;;6.45;;
31002;SDS011;23051;-6.372;106.786;2022-08-11T06:27:20;17.20;;;5.68;;
31002;SDS011;23051;-6.372;106.786;2022-08-11T06:29:23;10.00;;;5.50;;
31002;SDS011;23051;-6.372;106.786;2022-08-11T06:31:30;8.68;;;4.35;;
31002;SDS011;23051;-6.372;106.786;2022-08-11T06:33:37;6.18;;;5.57;;
31002;SDS011;23051;-6.372;106.786;2022-08-11T06:40:00;3.85;;;3.13;;
31002;SDS011;23051;-6.372;106.786;2022-08-11T06:42:06;5.20;;;4.65;;
31002;SDS011;23051;-6.372;106.786;2022-08-11T06:46:19;8.15;;;3.40;;
31002;SDS011;23051;-6.372;106.786;2022-08-11T06:48:25;8.48;;;4.25;;
31002;SDS011;23051;-6.372;106.786;2022-08-11T06:50:30;7.85;;;3.88;;
31002;SDS011;23051;-6.372;106.786;2022-08-11T06:52:35;13.13;;;6.10;;
31002;SDS011;23051;-6.372;106.786;2022-08-11T06:54:41;12.10;;;5.20;;
31002;SDS011;23051;-6.372;106.786;2022-08-11T06:56:44;6.43;;;4.88;;
31002;SDS011;23051;-6.372;106.786;2022-08-11T06:58:51;7.85;;;4.75;;
31002;SDS011;23051;-6.372;106.786;2022-08-11T07:00:56;7.82;;;4.93;;
31002;SDS011;23051;-6.372;106.786;2022-08-11T07:03:07;6.65;;;3.10;;
31002;SDS011;23051;-6.372;106.786;2022-08-11T07:05:10;4.10;;;3.53;;
31002;SDS011;23051;-6.372;106.786;2022-08-11T07:09:27;11.57;;;5.28;;
31002;SDS011;23051;-6.372;106.786;2022-08-11T07:13:51;7.10;;;4.50;;
31002;SDS011;23051;-6.372;106.786;2022-08-11T07:15:59;8.07;;;4.82;;
31002;SDS011;23051;-6.372;106.786;2022-08-11T07:18:05;5.38;;;4.30;;
31002;SDS011;23051;-6.372;106.786;2022-08-11T07:22:14;5.10;;;4.43;;
31002;SDS011;23051;-6.372;106.786;2022-08-11T07:24:21;9.43;;;4.85;;
31002;SDS011;23051;-6.372;106.786;2022-08-11T07:26:26;5.68;;;4.10;;
31002;SDS011;23051;-6.372;106.786;2022-08-11T07:28:34;5.43;;;3.95;;
31002;SDS011;23051;-6.372;106.786;2022-08-11T07:30:40;7.00;;;5.35;;
31002;SDS011;23051;-6.372;106.786;2022-08-11T07:32:44;7.40;;;4.65;;
31002;SDS011;23051;-6.372;106.786;2022-08-11T07:34:50;4.18;;;3.78;;
31002;SDS011;23051;-6.372;106.786;2022-08-11T07:36:57;6.65;;;5.28;;
31002;SDS011;23051;-6.372;106.786;2022-08-11T07:38:59;3.95;;;3.40;;
31002;SDS011;23051;-6.372;106.786;2022-08-11T07:41:01;6.90;;;2.78;;
31002;SDS011;23051;-6.372;106.786;2022-08-11T07:43:05;7.78;;;5.22;;
31002;SDS011;23051;-6.372;106.786;2022-08-11T07:45:12;5.75;;;4.10;;
31002;SDS011;23051;-6.372;106.786;2022-08-11T07:47:16;9.35;;;3.78;;
31002;SDS011;23051;-6.372;106.786;2022-08-11T07:49:23;7.65;;;5.10;;
31002;SDS011;23051;-6.372;106.786;2022-08-11T07:51:30;5.78;;;4.72;;
31002;SDS011;23051;-6.372;106.786;2022-08-11T07:53:34;7.88;;;4.15;;
31002;SDS011;23051;-6.372;106.786;2022-08-11T07:55:39;7.50;;;5.22;;
31002;SDS011;23051;-6.372;106.786;2022-08-11T07:59:48;7.30;;;5.45;;
31002;SDS011;23051;-6.372;106.786;2022-08-11T08:01:52;6.47;;;4.63;;
31002;SDS011;23051;-6.372;106.786;2022-08-11T08:03:57;7.75;;;5.15;;
31002;SDS011;23051;-6.372;106.786;2022-08-11T08:06:05;6.85;;;5.65;;
31002;SDS011;23051;-6.372;106.786;2022-08-11T08:08:12;3.33;;;2.95;;
31002;SDS011;23051;-6.372;106.786;2022-08-11T08:10:19;7.40;;;5.38;;
31002;SDS011;23051;-6.372;106.786;2022-08-11T08:12:25;12.90;;;6.55;;
31002;SDS011;23051;-6.372;106.786;2022-08-11T08:14:30;8.82;;;3.80;;
31002;SDS011;23051;-6.372;106.786;2022-08-11T08:16:40;12.45;;;4.60;;
31002;SDS011;23051;-6.372;106.786;2022-08-11T08:18:45;5.70;;;3.78;;
31002;SDS011;23051;-6.372;106.786;2022-08-11T08:20:49;9.13;;;5.28;;
31002;SDS011;23051;-6.372;106.786;2022-08-11T08:22:55;5.93;;;4.75;;
31002;SDS011;23051;-6.372;106.786;2022-08-11T08:25:01;4.80;;;3.47;;
31002;SDS011;23051;-6.372;106.786;2022-08-11T08:27:03;6.40;;;4.72;;
31002;SDS011;23051;-6.372;106.786;2022-08-11T08:29:10;8.02;;;4.97;;
31002;SDS011;23051;-6.372;106.786;2022-08-11T08:31:17;8.52;;;5.88;;
31002;SDS011;23051;-6.372;106.786;2022-08-11T08:33:23;9.48;;;4.38;;
31002;SDS011;23051;-6.372;106.786;2022-08-11T08:35:25;11.63;;;5.32;;
31002;SDS011;23051;-6.372;106.786;2022-08-11T08:37:32;8.60;;;5.45;;
31002;SDS011;23051;-6.372;106.786;2022-08-11T08:39:34;13.98;;;6.30;;
31002;SDS011;23051;-6.372;106.786;2022-08-11T08:41:37;6.53;;;5.22;;
31002;SDS011;23051;-6.372;106.786;2022-08-11T08:43:42;9.60;;;6.03;;
31002;SDS011;23051;-6.372;106.786;2022-08-11T08:45:48;7.32;;;5.50;;
31002;SDS011;23051;-6.372;106.786;2022-08-11T08:47:52;4.05;;;3.75;;
31002;SDS011;23051;-6.372;106.786;2022-08-11T08:50:00;13.93;;;4.82;;
31002;SDS011;23051;-6.372;106.786;2022-08-11T08:52:03;7.28;;;6.07;;
31002;SDS011;23051;-6.372;106.786;2022-08-11T08:54:13;5.50;;;3.42;;
31002;SDS011;23051;-6.372;106.786;2022-08-11T08:56:16;10.02;;;5.63;;
31002;SDS011;23051;-6.372;106.786;2022-08-11T08:58:18;5.22;;;4.72;;
31002;SDS011;23051;-6.372;106.786;2022-08-11T09:00:23;17.05;;;6.10;;
31002;SDS011;23051;-6.372;106.786;2022-08-11T09:02:27;8.93;;;6.60;;
31002;SDS011;23051;-6.372;106.786;2022-08-11T09:04:33;5.68;;;4.35;;
31002;SDS011;23051;-6.372;106.786;2022-08-11T09:06:36;10.38;;;4.95;;
31002;SDS011;23051;-6.372;106.786;2022-08-11T09:08:42;7.47;;;5.22;;
31002;SDS011;23051;-6.372;106.786;2022-08-11T09:10:48;6.47;;;4.45;;
31002;SDS011;23051;-6.372;106.786;2022-08-11T09:13:10;21.83;;;5.40;;
31002;SDS011;23051;-6.372;106.786;2022-08-11T09:15:12;10.35;;;6.30;;
31002;SDS011;23051;-6.372;106.786;2022-08-11T09:17:17;13.05;;;5.68;;
31002;SDS011;23051;-6.372;106.786;2022-08-11T09:19:22;10.80;;;6.20;;
31002;SDS011;23051;-6.372;106.786;2022-08-11T09:21:24;7.22;;;6.03;;
31002;SDS011;23051;-6.372;106.786;2022-08-11T09:23:27;4.40;;;4.05;;
31002;SDS011;23051;-6.372;106.786;2022-08-11T09:25:32;13.40;;;5.05;;
31002;SDS011;23051;-6.372;106.786;2022-08-11T09:27:36;4.90;;;4.25;;
31002;SDS011;23051;-6.372;106.786;2022-08-11T09:29:44;6.57;;;4.35;;
31002;SDS011;23051;-6.372;106.786;2022-08-11T09:33:49;6.65;;;5.68;;
31002;SDS011;23051;-6.372;106.786;2022-08-11T09:35:51;9.45;;;6.15;;
31002;SDS011;23051;-6.372;106.786;2022-08-11T09:37:54;11.70;;;5.82;;
31002;SDS011;23051;-6.372;106.786;2022-08-11T09:40:01;4.05;;;3.58;;
31002;SDS011;23051;-6.372;106.786;2022-08-11T09:42:03;7.07;;;5.40;;
31002;SDS011;23051;-6.372;106.786;2022-08-11T09:46:09;6.15;;;5.20;;
31002;SDS011;23051;-6.372;106.786;2022-08-11T09:48:11;5.75;;;4.80;;
31002;SDS011;23051;-6.372;106.786;2022-08-11T09:50:15;13.27;;;5.72;;
31002;SDS011;23051;-6.372;106.786;2022-08-11T09:56:22;5.85;;;4.13;;
31002;SDS011;23051;-6.372;106.786;2022-08-11T09:58:29;7.55;;;4.63;;
31002;SDS011;23051;-6.372;106.786;2022-08-11T10:00:39;4.13;;;3.80;;
31002;SDS011;23051;-6.372;106.786;2022-08-11T10:02:42;6.60;;;5.43;;
31002;SDS011;23051;-6.372;106.786;2022-08-11T10:04:44;9.57;;;5.13;;
31002;SDS011;23051;-6.372;106.786;2022-08-11T10:06:51;8.52;;;4.20;;
31002;SDS011;23051;-6.372;106.786;2022-08-11T10:08:58;4.28;;;3.88;;
31002;SDS011;23051;-6.372;106.786;2022-08-11T10:11:00;6.38;;;5.32;;
31002;SDS011;23051;-6.372;106.786;2022-08-11T10:15:08;11.90;;;7.95;;
31002;SDS011;23051;-6.372;106.786;2022-08-11T10:17:12;10.20;;;7.35;;
31002;SDS011;23051;-6.372;106.786;2022-08-11T10:19:17;17.60;;;10.73;;
31002;SDS011;23051;-6.372;106.786;2022-08-11T10:21:24;14.70;;;6.57;;
31002;SDS011;23051;-6.372;106.786;2022-08-11T10:23:32;6.82;;;5.55;;
31002;SDS011;23051;-6.372;106.786;2022-08-11T10:25:39;8.27;;;6.55;;
31002;SDS011;23051;-6.372;106.786;2022-08-11T10:27:45;7.72;;;5.28;;
31002;SDS011;23051;-6.372;106.786;2022-08-11T10:29:57;5.85;;;4.00;;
31002;SDS011;23051;-6.372;106.786;2022-08-11T10:32:03;23.83;;;7.85;;
31002;SDS011;23051;-6.372;106.786;2022-08-11T10:34:07;8.65;;;6.28;;
31002;SDS011;23051;-6.372;106.786;2022-08-11T10:36:10;5.33;;;4.00;;
31002;SDS011;23051;-6.372;106.786;2022-08-11T10:38:16;8.50;;;4.50;;
31002;SDS011;23051;-6.372;106.786;2022-08-11T10:40:21;4.88;;;4.35;;
31002;SDS011;23051;-6.372;106.786;2022-08-11T10:42:26;5.07;;;4.22;;
31002;SDS011;23051;-6.372;106.786;2022-08-11T10:44:31;4.53;;;2.80;;
31002;SDS011;23051;-6.372;106.786;2022-08-11T10:46:41;5.60;;;4.70;;
31002;SDS011;23051;-6.372;106.786;2022-08-11T10:48:48;5.38;;;4.38;;
31002;SDS011;23051;-6.372;106.786;2022-08-11T10:50:50;6.70;;;4.88;;
31002;SDS011;23051;-6.372;106.786;2022-08-11T10:52:57;4.88;;;3.83;;
31002;SDS011;23051;-6.372;106.786;2022-08-11T10:55:04;5.13;;;4.00;;
31002;SDS011;23051;-6.372;106.786;2022-08-11T10:57:09;8.13;;;4.07;;
31002;SDS011;23051;-6.372;106.786;2022-08-11T10:59:14;3.97;;;3.70;;
31002;SDS011;23051;-6.372;106.786;2022-08-11T11:03:24;6.78;;;4.50;;
31002;SDS011;23051;-6.372;106.786;2022-08-11T11:05:29;5.00;;;4.57;;
31002;SDS011;23051;-6.372;106.786;2022-08-11T11:07:40;3.08;;;2.80;;
31002;SDS011;23051;-6.372;106.786;2022-08-11T11:09:46;7.22;;;3.85;;
31002;SDS011;23051;-6.372;106.786;2022-08-11T11:11:52;6.78;;;4.10;;
31002;SDS011;23051;-6.372;106.786;2022-08-11T11:13:59;5.15;;;3.92;;
31002;SDS011;23051;-6.372;106.786;2022-08-11T11:16:06;4.47;;;3.70;;
31002;SDS011;23051;-6.372;106.786;2022-08-11T11:18:15;4.07;;;3.65;;
31002;SDS011;23051;-6.372;106.786;2022-08-11T11:20:22;4.70;;;4.32;;
31002;SDS011;23051;-6.372;106.786;2022-08-11T11:22:27;5.18;;;3.83;;
31002;SDS011;23051;-6.372;106.786;2022-08-11T11:24:38;1.92;;;1.67;;
31002;SDS011;23051;-6.372;106.786;2022-08-11T11:28:55;2.83;;;2.63;;
31002;SDS011;23051;-6.372;106.786;2022-08-11T11:31:05;5.03;;;4.00;;
31002;SDS011;23051;-6.372;106.786;2022-08-11T11:33:20;5.55;;;3.97;;
31002;SDS011;23051;-6.372;106.786;2022-08-11T11:37:29;4.88;;;2.70;;
31002;SDS011;23051;-6.372;106.786;2022-08-11T11:39:34;6.32;;;2.85;;
31002;SDS011;23051;-6.372;106.786;2022-08-11T11:41:40;7.80;;;3.87;;
31002;SDS011;23051;-6.372;106.786;2022-08-11T11:43:42;3.38;;;2.55;;
31002;SDS011;23051;-6.372;106.786;2022-08-11T11:47:48;3.17;;;2.97;;
31002;SDS011;23051;-6.372;106.786;2022-08-11T11:49:52;4.78;;;4.20;;
31002;SDS011;23051;-6.372;106.786;2022-08-11T11:51:57;3.08;;;2.80;;
31002;SDS011;23051;-6.372;106.786;2022-08-11T11:53:59;4.43;;;2.40;;
31002;SDS011;23051;-6.372;106.786;2022-08-11T11:56:02;5.60;;;3.40;;
31002;SDS011;23051;-6.372;106.786;2022-08-11T11:58:13;8.73;;;3.42;;
31002;SDS011;23051;-6.372;106.786;2022-08-11T12:00:18;6.07;;;2.72;;
31002;SDS011;23051;-6.372;106.786;2022-08-11T12:02:22;3.40;;;3.13;;
31002;SDS011;23051;-6.372;106.786;2022-08-11T12:06:28;5.75;;;3.85;;
31002;SDS011;23051;-6.372;106.786;2022-08-11T12:08:30;5.40;;;3.70;;
31002;SDS011;23051;-6.372;106.786;2022-08-11T12:10:35;5.45;;;2.90;;
31002;SDS011;23051;-6.372;106.786;2022-08-11T12:12:37;3.50;;;3.17;;
31002;SDS011;23051;-6.372;106.786;2022-08-11T12:14:42;7.30;;;3.75;;
31002;SDS011;23051;-6.372;106.786;2022-08-11T12:16:47;4.47;;;3.00;;
31002;SDS011;23051;-6.372;106.786;2022-08-11T12:18:51;6.03;;;3.90;;
31002;SDS011;23051;-6.372;106.786;2022-08-11T12:20:56;7.20;;;4.70;;
31002;SDS011;23051;-6.372;106.786;2022-08-11T12:23:04;5.63;;;3.20;;
31002;SDS011;23051;-6.372;106.786;2022-08-11T12:25:08;5.38;;;2.85;;
31002;SDS011;23051;-6.372;106.786;2022-08-11T12:27:13;6.55;;;3.17;;
31002;SDS011;23051;-6.372;106.786;2022-08-11T12:29:20;6.50;;;3.85;;
31002;SDS011;23051;-6.372;106.786;2022-08-11T12:31:28;9.02;;;4.40;;
31002;SDS011;23051;-6.372;106.786;2022-08-11T12:33:33;2.65;;;2.45;;
31002;SDS011;23051;-6.372;106.786;2022-08-11T12:35:38;7.70;;;3.65;;
31002;SDS011;23051;-6.372;106.786;2022-08-11T12:39:46;4.72;;;3.25;;
31002;SDS011;23051;-6.372;106.786;2022-08-11T12:41:54;5.45;;;2.45;;
31002;SDS011;23051;-6.372;106.786;2022-08-11T12:44:01;11.63;;;3.67;;
31002;SDS011;23051;-6.372;106.786;2022-08-11T12:46:15;7.32;;;3.17;;
31002;SDS011;23051;-6.372;106.786;2022-08-11T12:48:22;3.03;;;2.55;;
31002;SDS011;23051;-6.372;106.786;2022-08-11T12:50:27;13.05;;;4.80;;
31002;SDS011;23051;-6.372;106.786;2022-08-11T12:52:35;6.82;;;4.53;;
31002;SDS011;23051;-6.372;106.786;2022-08-11T12:54:42;11.88;;;2.80;;
31002;SDS011;23051;-6.372;106.786;2022-08-11T12:56:49;9.85;;;3.20;;
31002;SDS011;23051;-6.372;106.786;2022-08-11T12:58:54;19.67;;;3.85;;
31002;SDS011;23051;-6.372;106.786;2022-08-11T13:00:59;4.15;;;3.40;;
31002;SDS011;23051;-6.372;106.786;2022-08-11T13:03:07;5.88;;;3.90;;
31002;SDS011;23051;-6.372;106.786;2022-08-11T13:05:13;1.83;;;1.67;;
31002;SDS011;23051;-6.372;106.786;2022-08-11T13:07:15;1.90;;;1.80;;
31002;SDS011;23051;-6.372;106.786;2022-08-11T13:09:17;3.72;;;3.22;;
31002;SDS011;23051;-6.372;106.786;2022-08-11T13:11:21;11.05;;;4.40;;
31002;SDS011;23051;-6.372;106.786;2022-08-11T13:13:28;5.15;;;3.25;;
31002;SDS011;23051;-6.372;106.786;2022-08-11T13:15:34;12.55;;;4.47;;
31002;SDS011;23051;-6.372;106.786;2022-08-11T13:17:41;6.50;;;4.15;;
31002;SDS011;23051;-6.372;106.786;2022-08-11T13:19:45;15.23;;;4.90;;
31002;SDS011;23051;-6.372;106.786;2022-08-11T13:21:48;10.27;;;5.07;;
31002;SDS011;23051;-6.372;106.786;2022-08-11T13:23:53;2.55;;;2.35;;
31002;SDS011;23051;-6.372;106.786;2022-08-11T13:25:56;2.78;;;2.67;;
31002;SDS011;23051;-6.372;106.786;2022-08-11T13:28:03;4.82;;;4.30;;
31002;SDS011;23051;-6.372;106.786;2022-08-11T13:30:11;6.90;;;3.08;;
31002;SDS011;23051;-6.372;106.786;2022-08-11T13:32:34;4.30;;;3.13;;
31002;SDS011;23051;-6.372;106.786;2022-08-11T13:34:39;3.42;;;3.13;;
31002;SDS011;23051;-6.372;106.786;2022-08-11T13:36:42;4.93;;;4.13;;
31002;SDS011;23051;-6.372;106.786;2022-08-11T13:38:46;4.05;;;3.17;;
31002;SDS011;23051;-6.372;106.786;2022-08-11T13:40:53;6.20;;;3.45;;
31002;SDS011;23051;-6.372;106.786;2022-08-11T13:42:58;3.55;;;3.20;;
31002;SDS011;23051;-6.372;106.786;2022-08-11T13:45:00;3.30;;;2.70;;
31002;SDS011;23051;-6.372;106.786;2022-08-11T13:47:06;5.55;;;3.63;;
31002;SDS011;23051;-6.372;106.786;2022-08-11T13:49:08;6.05;;;2.65;;
31002;SDS011;23051;-6.372;106.786;2022-08-11T13:51:14;10.15;;;5.03;;
31002;SDS011;23051;-6.372;106.786;2022-08-11T13:53:20;4.60;;;3.33;;
31002;SDS011;23051;-6.372;106.786;2022-08-11T13:55:23;4.43;;;3.25;;
31002;SDS011;23051;-6.372;106.786;2022-08-11T13:57:25;4.13;;;2.85;;
31002;SDS011;23051;-6.372;106.786;2022-08-11T13:59:30;5.47;;;2.38;;
31002;SDS011;23051;-6.372;106.786;2022-08-11T14:01:43;4.53;;;3.08;;
31002;SDS011;23051;-6.372;106.786;2022-08-11T14:03:49;5.18;;;3.08;;
31002;SDS011;23051;-6.372;106.786;2022-08-11T14:05:52;8.45;;;4.10;;
31002;SDS011;23051;-6.372;106.786;2022-08-11T14:07:59;6.35;;;2.67;;
31002;SDS011;23051;-6.372;106.786;2022-08-11T14:10:05;2.65;;;2.35;;
31002;SDS011;23051;-6.372;106.786;2022-08-11T14:12:16;8.18;;;2.20;;
31002;SDS011;23051;-6.372;106.786;2022-08-11T14:14:25;5.35;;;3.03;;
31002;SDS011;23051;-6.372;106.786;2022-08-11T14:16:35;2.78;;;2.55;;
31002;SDS011;23051;-6.372;106.786;2022-08-11T14:18:45;3.03;;;2.22;;
31002;SDS011;23051;-6.372;106.786;2022-08-11T14:20:51;2.95;;;2.50;;
31002;SDS011;23051;-6.372;106.786;2022-08-11T14:22:57;10.13;;;3.13;;
31002;SDS011;23051;-6.372;106.786;2022-08-11T14:24:59;5.70;;;3.53;;
31002;SDS011;23051;-6.372;106.786;2022-08-11T14:27:05;9.40;;;3.30;;
31002;SDS011;23051;-6.372;106.786;2022-08-11T14:29:13;5.75;;;2.85;;
31002;SDS011;23051;-6.372;106.786;2022-08-11T14:31:21;3.03;;;2.80;;
31002;SDS011;23051;-6.372;106.786;2022-08-11T14:33:29;3.05;;;2.85;;
31002;SDS011;23051;-6.372;106.786;2022-08-11T14:37:44;3.28;;;2.78;;
31002;SDS011;23051;-6.372;106.786;2022-08-11T14:39:49;2.17;;;1.95;;
31002;SDS011;23051;-6.372;106.786;2022-08-11T14:41:55;6.07;;;4.22;;
31002;SDS011;23051;-6.372;106.786;2022-08-11T14:44:00;6.90;;;4.22;;
31002;SDS011;23051;-6.372;106.786;2022-08-11T14:46:04;3.33;;;2.90;;
31002;SDS011;23051;-6.372;106.786;2022-08-11T14:48:09;4.60;;;1.98;;
31002;SDS011;23051;-6.372;106.786;2022-08-11T14:50:12;4.65;;;3.65;;
31002;SDS011;23051;-6.372;106.786;2022-08-11T14:52:16;5.00;;;2.95;;
31002;SDS011;23051;-6.372;106.786;2022-08-11T14:56:30;3.00;;;2.65;;
31002;SDS011;23051;-6.372;106.786;2022-08-11T14:58:36;6.55;;;2.17;;
31002;SDS011;23051;-6.372;106.786;2022-08-11T15:00:38;5.10;;;2.65;;
31002;SDS011;23051;-6.372;106.786;2022-08-11T15:02:41;9.48;;;2.80;;
31002;SDS011;23051;-6.372;106.786;2022-08-11T15:04:46;3.28;;;2.22;;
31002;SDS011;23051;-6.372;106.786;2022-08-11T15:06:50;2.22;;;1.85;;
31002;SDS011;23051;-6.372;106.786;2022-08-11T15:08:56;6.75;;;3.28;;
31002;SDS011;23051;-6.372;106.786;2022-08-11T15:10:59;3.65;;;2.97;;
31002;SDS011;23051;-6.372;106.786;2022-08-11T15:15:22;3.38;;;2.90;;
31002;SDS011;23051;-6.372;106.786;2022-08-11T15:17:30;13.98;;;4.65;;
31002;SDS011;23051;-6.372;106.786;2022-08-11T15:19:33;2.97;;;2.15;;
31002;SDS011;23051;-6.372;106.786;2022-08-11T15:21:37;3.50;;;2.65;;
31002;SDS011;23051;-6.372;106.786;2022-08-11T15:23:44;4.07;;;2.70;;
31002;SDS011;23051;-6.372;106.786;2022-08-11T15:25:57;2.63;;;2.25;;
31002;SDS011;23051;-6.372;106.786;2022-08-11T15:28:00;6.63;;;2.85;;
31002;SDS011;23051;-6.372;106.786;2022-08-11T15:30:05;4.32;;;2.00;;
31002;SDS011;23051;-6.372;106.786;2022-08-11T15:32:12;6.38;;;4.20;;
31002;SDS011;23051;-6.372;106.786;2022-08-11T15:34:17;3.15;;;2.83;;
31002;SDS011;23051;-6.372;106.786;2022-08-11T15:36:25;3.88;;;2.83;;
31002;SDS011;23051;-6.372;106.786;2022-08-11T15:38:32;9.23;;;4.00;;
31002;SDS011;23051;-6.372;106.786;2022-08-11T15:40:38;2.47;;;2.03;;
31002;SDS011;23051;-6.372;106.786;2022-08-11T15:44:51;2.90;;;2.08;;
31002;SDS011;23051;-6.372;106.786;2022-08-11T15:46:58;3.60;;;3.30;;
31002;SDS011;23051;-6.372;106.786;2022-08-11T15:49:04;4.18;;;2.15;;
31002;SDS011;23051;-6.372;106.786;2022-08-11T15:51:09;2.50;;;1.95;;
31002;SDS011;23051;-6.372;106.786;2022-08-11T15:53:15;2.13;;;1.75;;
31002;SDS011;23051;-6.372;106.786;2022-08-11T15:55:18;2.55;;;2.13;;
31002;SDS011;23051;-6.372;106.786;2022-08-11T15:57:22;3.20;;;1.92;;
31002;SDS011;23051;-6.372;106.786;2022-08-11T15:59:29;3.05;;;2.67;;
31002;SDS011;23051;-6.372;106.786;2022-08-11T16:01:37;2.95;;;2.00;;
31002;SDS011;23051;-6.372;106.786;2022-08-11T16:03:46;5.00;;;3.25;;
31002;SDS011;23051;-6.372;106.786;2022-08-11T16:05:49;5.35;;;3.97;;
31002;SDS011;23051;-6.372;106.786;2022-08-11T16:07:53;4.88;;;3.35;;
31002;SDS011;23051;-6.372;106.786;2022-08-11T16:09:58;2.42;;;1.63;;
31002;SDS011;23051;-6.372;106.786;2022-08-11T16:12:01;4.38;;;2.38;;
31002;SDS011;23051;-6.372;106.786;2022-08-11T16:14:06;2.60;;;1.95;;
31002;SDS011;23051;-6.372;106.786;2022-08-11T16:16:11;3.20;;;2.28;;
31002;SDS011;23051;-6.372;106.786;2022-08-11T16:18:14;5.25;;;3.00;;